Time;durP1;ratioP1;P1;durP2;ratioP2;P2;SDS_P1;SDS_P2;PMS_P1;PMS_P2;Temp;Humidity;BMP_temperature;BMP_pressure;BME280_temperature;BME280_humidity;BME280_pressure;Samples;Min_cycle;Max_cycle;Signal;HPM_P1;HPM_P2
2022/03/18 00:00:31;;;;;;;;;17.00;17.00;;;;;7.92;60.86;103056.22;5007848;28;45148;-59
2022/03/18 00:02:57;;;;;;;;;19.00;16.25;;;;;7.96;60.79;103067.69;5008948;28;45220;-60
2022/03/18 00:05:27;;;;;;;;;16.75;14.00;;;;;7.94;60.90;103066.81;5002516;28;45437;-61
2022/03/18 00:07:53;;;;;;;;;19.25;19.00;;;;;7.97;60.93;103061.50;5003747;28;45404;-60
2022/03/18 00:10:19;;;;;;;;;15.25;15.25;;;;;7.96;60.67;103062.41;4999994;28;45435;-59
2022/03/18 00:12:47;;;;;;;;;22.50;18.25;;;;;7.97;61.16;103065.03;5004769;28;45199;-61
2022/03/18 00:15:13;;;;;;;;;23.25;20.75;;;;;7.86;61.24;103036.84;5003568;28;45432;-60
2022/03/18 00:17:39;;;;;;;;;17.00;17.00;;;;;7.99;60.69;103059.72;5005840;28;45535;-60
2022/03/18 00:20:06;;;;;;;;;18.50;15.75;;;;;7.93;60.73;103050.03;5007077;28;45732;-60
2022/03/18 00:22:32;;;;;;;;;10.50;10.00;;;;;8.00;60.92;103058.84;5006764;28;45429;-60
2022/03/18 00:24:57;;;;;;;;;21.00;13.75;;;;;7.95;60.87;103050.03;5004132;28;45381;-60
2022/03/18 00:27:23;;;;;;;;;14.50;12.50;;;;;7.95;61.03;103055.34;5002859;28;45341;-61
2022/03/18 00:29:49;;;;;;;;;14.25;11.00;;;;;7.79;61.31;103033.31;5002612;28;45715;-60
2022/03/18 00:32:15;;;;;;;;;16.50;14.00;;;;;7.89;61.18;103058.00;5004034;28;45311;-61
2022/03/18 00:34:40;;;;;;;;;17.50;14.00;;;;;7.93;61.31;103070.34;5008735;28;45198;-61
2022/03/18 00:37:07;;;;;;;;;12.25;9.25;;;;;7.95;61.17;103068.59;5011554;28;44732;-60
2022/03/18 00:39:32;;;;;;;;;15.50;15.50;;;;;7.86;61.09;103058.91;5003811;28;44898;-60
2022/03/18 00:41:57;;;;;;;;;14.75;13.00;;;;;7.81;61.19;103050.13;4968363;28;46128;-61
2022/03/18 00:44:25;;;;;;;;;16.75;14.25;;;;;7.83;61.25;103053.63;5000366;28;45420;-59
2022/03/18 00:46:51;;;;;;;;;25.00;17.50;;;;;7.84;61.38;103054.50;5002219;28;45312;-60
2022/03/18 00:52:04;;;;;;;;;25.75;20.25;;;;;7.87;61.36;103065.09;4998125;28;46030;-59
2022/03/18 00:54:31;;;;;;;;;21.00;18.25;;;;;7.78;61.46;103049.22;4999048;28;45438;-61
2022/03/18 00:56:57;;;;;;;;;17.25;17.25;;;;;7.91;61.75;103072.13;5000548;28;45425;-60
2022/03/18 00:59:22;;;;;;;;;21.00;17.50;;;;;7.88;61.06;103066.84;5006231;28;45648;-62
2022/03/18 01:01:52;;;;;;;;;19.50;17.75;;;;;7.84;61.83;103070.41;5003495;28;45611;-60
2022/03/18 01:04:18;;;;;;;;;28.00;21.50;;;;;7.80;61.50;103064.22;5006449;28;45243;-60
2022/03/18 01:06:44;;;;;;;;;20.25;17.75;;;;;7.76;62.15;103056.31;5003508;28;45612;-60
2022/03/18 01:09:09;;;;;;;;;22.00;17.75;;;;;7.69;61.72;103048.41;5001935;28;45447;-59
2022/03/18 01:11:34;;;;;;;;;22.50;20.75;;;;;7.75;62.45;103070.44;5000864;28;46132;-60
2022/03/18 01:14:00;;;;;;;;;25.25;23.50;;;;;7.66;62.46;103061.66;5001084;28;45454;-60
2022/03/18 01:16:25;;;;;;;;;24.25;21.75;;;;;7.65;62.73;103062.53;5006258;28;45903;-60
2022/03/18 01:18:50;;;;;;;;;18.50;16.00;;;;;7.48;62.95;103045.84;5006934;28;45492;-59
2022/03/18 01:21:16;;;;;;;;;23.25;22.50;;;;;7.47;63.04;103065.28;4999169;28;45380;-60
2022/03/18 01:23:41;;;;;;;;;28.00;21.25;;;;;7.59;63.27;103081.13;5003488;28;46685;-60
2022/03/18 01:26:06;;;;;;;;;25.50;21.75;;;;;7.54;63.33;103074.06;5002282;28;45393;-62
2022/03/18 01:28:32;;;;;;;;;29.00;20.00;;;;;7.59;63.71;103080.25;5000174;28;45420;-60
2022/03/18 01:30:58;;;;;;;;;20.25;20.25;;;;;7.60;62.95;103082.00;4996390;28;45177;-61
2022/03/18 01:33:23;;;;;;;;;24.75;23.00;;;;;7.57;63.03;103069.66;5016336;28;45160;-60
2022/03/18 01:35:49;;;;;;;;;24.25;23.00;;;;;7.62;63.11;103073.16;4995289;28;45253;-62
2022/03/18 01:38:14;;;;;;;;;26.50;25.50;;;;;7.64;63.42;103079.31;4983557;28;45418;-60
2022/03/18 01:40:40;;;;;;;;;24.00;21.25;;;;;7.61;64.10;103079.34;4997877;28;45445;-60
2022/03/18 01:43:09;;;;;;;;;22.50;22.50;;;;;7.63;63.83;103090.81;4979597;28;45371;-61
2022/03/18 01:45:34;;;;;;;;;23.50;23.50;;;;;7.60;63.47;103082.88;4998490;28;45463;-60
2022/03/18 01:48:00;;;;;;;;;33.00;25.50;;;;;7.63;63.90;103076.69;5001088;28;45269;-60
2022/03/18 01:50:26;;;;;;;;;31.25;26.25;;;;;7.60;63.81;103088.16;4999498;28;45399;-60
2022/03/18 01:52:52;;;;;;;;;25.25;20.50;;;;;7.62;63.91;103083.75;4997871;28;45539;-60
2022/03/18 01:55:20;;;;;;;;;32.25;30.00;;;;;7.61;64.13;103095.22;4998016;28;45440;-61
2022/03/18 01:57:46;;;;;;;;;34.75;26.50;;;;;7.51;64.01;103088.19;4998435;28;45348;-59
2022/03/18 02:00:12;;;;;;;;;21.50;21.50;;;;;7.49;64.80;103079.38;4997613;28;46815;-60
2022/03/18 02:02:38;;;;;;;;;28.50;23.50;;;;;7.50;64.61;103096.16;4986167;28;45311;-60
2022/03/18 02:05:05;;;;;;;;;30.50;25.00;;;;;7.48;64.75;103088.22;5007124;28;45500;-60
2022/03/18 02:07:31;;;;;;;;;33.75;27.25;;;;;7.47;64.52;103091.75;5004826;28;46163;-60
2022/03/18 02:09:56;;;;;;;;;31.50;28.50;;;;;7.40;64.86;103082.94;5002515;28;46196;-61
2022/03/18 02:12:22;;;;;;;;;27.75;27.25;;;;;7.44;65.10;103090.88;5001276;28;45171;-59
2022/03/18 02:14:48;;;;;;;;;30.75;28.00;;;;;7.44;65.01;103086.47;5009306;28;45372;-60
2022/03/18 02:17:15;;;;;;;;;35.50;28.50;;;;;7.36;65.11;103078.53;5007864;28;45543;-61
2022/03/18 02:19:43;;;;;;;;;37.00;29.75;;;;;7.36;65.49;103083.84;5003140;28;45535;-60
2022/03/18 02:22:15;;;;;;;;;25.75;25.00;;;;;7.38;65.25;103094.41;5002946;28;45369;-60
2022/03/18 02:24:43;;;;;;;;;28.25;27.50;;;;;7.36;64.99;103093.53;5001254;28;45435;-60
2022/03/18 02:27:09;;;;;;;;;28.75;23.75;;;;;7.33;65.92;103101.50;4984359;28;45247;-59
2022/03/18 02:29:35;;;;;;;;;28.25;26.25;;;;;7.29;65.50;103098.00;5001522;28;46215;-59
2022/03/18 02:32:03;;;;;;;;;33.75;31.25;;;;;7.27;65.97;103093.56;5009538;28;45670;-60
2022/03/18 02:34:28;;;;;;;;;39.00;32.50;;;;;7.28;65.51;103092.69;5009243;28;45250;-60
2022/03/18 02:36:55;;;;;;;;;32.00;32.00;;;;;7.24;65.87;103073.28;5008158;28;45392;-62
2022/03/18 02:39:20;;;;;;;;;31.50;31.50;;;;;7.24;65.61;103075.06;5005544;28;45320;-60
2022/03/18 02:41:46;;;;;;;;;38.25;28.00;;;;;7.26;65.76;103067.97;5002893;28;45441;-59
2022/03/18 02:44:11;;;;;;;;;41.00;32.25;;;;;7.25;65.61;103072.41;4984829;28;45505;-59
2022/03/18 02:46:36;;;;;;;;;35.75;34.25;;;;;7.27;65.69;103078.56;5005760;28;45597;-60
2022/03/18 02:49:04;;;;;;;;;30.50;26.00;;;;;7.27;65.32;103077.69;5012923;28;45383;-62
2022/03/18 02:51:31;;;;;;;;;43.50;34.25;;;;;7.19;66.08;103069.78;5011616;28;45246;-60
2022/03/18 02:53:57;;;;;;;;;41.00;36.25;;;;;7.20;65.68;103074.19;5007712;28;45373;-60
2022/03/18 02:56:23;;;;;;;;;27.50;27.50;;;;;7.26;66.09;103081.22;5008795;28;45482;-60
2022/03/18 02:58:50;;;;;;;;;45.25;39.50;;;;;7.13;65.60;103063.59;5005705;28;46308;-60
2022/03/18 03:01:15;;;;;;;;;40.25;37.75;;;;;7.19;66.75;103080.38;5011163;28;45932;-60
2022/03/18 03:03:41;;;;;;;;;45.25;39.25;;;;;7.15;66.46;103088.28;5011437;28;45655;-61
2022/03/18 03:08:50;;;;;;;;;40.75;32.00;;;;;6.97;67.07;103084.81;4993785;28;45524;-60
2022/03/18 03:11:16;;;;;;;;;40.75;36.50;;;;;7.01;66.15;103089.19;5007265;28;45516;-59
2022/03/18 03:13:42;;;;;;;;;42.25;39.50;;;;;7.06;66.15;103092.75;5005579;28;45412;-60
2022/03/18 03:16:08;;;;;;;;;46.25;34.00;;;;;6.96;66.16;103075.09;4990385;28;45698;-60
2022/03/18 03:18:34;;;;;;;;;48.00;43.00;;;;;6.98;66.27;103091.84;5006027;28;45234;-60
2022/03/18 03:20:59;;;;;;;;;49.00;39.25;;;;;7.02;66.08;103103.31;4986172;28;45302;-60
2022/03/18 03:23:25;;;;;;;;;48.75;39.75;;;;;7.03;66.33;103100.69;4999107;28;45694;-59
2022/03/18 03:25:55;;;;;;;;;39.00;35.50;;;;;7.03;66.01;103110.34;5000545;28;45641;-59
2022/03/18 03:28:21;;;;;;;;;41.25;36.00;;;;;7.01;66.11;103117.41;5005938;28;45436;-60
2022/03/18 03:30:47;;;;;;;;;40.25;36.75;;;;;7.00;65.82;103105.97;5001982;28;45507;-61
2022/03/18 03:33:13;;;;;;;;;45.50;38.25;;;;;6.95;65.76;103105.09;5000819;28;45576;-58
2022/03/18 03:35:38;;;;;;;;;32.50;30.75;;;;;7.03;66.26;103120.94;5007298;28;45753;-59
2022/03/18 03:38:05;;;;;;;;;40.75;31.75;;;;;7.02;66.08;103121.81;5003774;28;45223;-66
2022/03/18 03:40:32;;;;;;;;;43.00;34.50;;;;;6.96;66.51;103112.16;5003331;28;45293;-61
2022/03/18 03:42:57;;;;;;;;;35.25;35.25;;;;;6.96;66.26;103114.78;5002543;28;45433;-60
2022/03/18 03:45:23;;;;;;;;;35.75;28.00;;;;;6.98;66.38;103113.03;5001858;28;45435;-60
2022/03/18 03:47:48;;;;;;;;;34.25;27.75;;;;;6.95;65.83;103113.03;5001960;28;46233;-60
2022/03/18 03:50:15;;;;;;;;;38.25;27.75;;;;;6.93;65.77;103109.50;5004422;28;45413;-61
2022/03/18 03:52:40;;;;;;;;;42.25;33.25;;;;;6.98;66.21;103109.50;5001279;28;45589;-60
2022/03/18 03:55:08;;;;;;;;;43.50;35.00;;;;;6.97;66.40;103111.25;5002984;28;45495;-58
2022/03/18 03:57:33;;;;;;;;;43.00;33.75;;;;;6.93;65.78;103112.16;4983665;28;45462;-60
2022/03/18 03:59:59;;;;;;;;;39.50;33.25;;;;;6.88;65.77;103115.66;5004658;28;45298;-61
2022/03/18 04:02:27;;;;;;;;;36.25;31.25;;;;;6.89;66.08;103118.31;4982845;28;45485;-61
2022/03/18 04:04:53;;;;;;;;;33.00;28.25;;;;;6.95;65.61;103134.19;5011171;28;44926;-60
2022/03/18 04:07:19;;;;;;;;;34.00;28.50;;;;;6.87;66.21;103130.66;5004652;28;45365;-66
2022/03/18 04:09:47;;;;;;;;;25.25;23.25;;;;;6.83;65.99;103143.91;5003872;28;45551;-60
2022/03/18 04:12:13;;;;;;;;;24.50;24.00;;;;;6.79;65.73;103140.38;5002435;28;45313;-60
2022/03/18 04:14:39;;;;;;;;;30.75;26.75;;;;;6.82;65.12;103140.38;5002746;28;45591;-61
2022/03/18 04:17:04;;;;;;;;;38.75;29.00;;;;;6.80;65.51;103126.28;5009194;28;45733;-60
2022/03/18 04:19:30;;;;;;;;;24.50;23.00;;;;;6.83;65.40;103142.13;5011740;28;45283;-65
2022/03/18 04:21:55;;;;;;;;;31.75;28.25;;;;;6.75;65.57;103126.25;5007463;28;45274;-61
2022/03/18 04:24:20;;;;;;;;;29.00;24.75;;;;;6.78;65.61;103136.84;5000243;28;45275;-58
2022/03/18 04:26:46;;;;;;;;;32.25;29.50;;;;;6.80;65.53;103155.38;4998369;28;46177;-60
2022/03/18 04:29:12;;;;;;;;;33.75;28.25;;;;;6.74;65.74;103152.69;4998760;28;46875;-62
2022/03/18 04:31:39;;;;;;;;;37.50;30.00;;;;;6.56;66.42;103150.94;5000580;28;45645;-61
2022/03/18 04:34:05;;;;;;;;;33.75;27.50;;;;;6.48;65.90;103156.19;4985064;28;45550;-64
2022/03/18 04:36:30;;;;;;;;;31.00;28.00;;;;;6.54;66.21;103157.09;5005631;28;45406;-61
2022/03/18 04:38:55;;;;;;;;;28.25;27.75;;;;;6.58;65.77;103169.44;5007438;28;45396;-60
2022/03/18 04:41:21;;;;;;;;;40.00;32.25;;;;;6.59;65.77;103174.72;5010180;28;45937;-60
2022/03/18 04:43:46;;;;;;;;;27.00;26.00;;;;;6.57;65.84;103179.13;5005434;28;45388;-60
2022/03/18 04:46:11;;;;;;;;;37.25;31.50;;;;;6.45;66.22;103168.53;4984313;28;45458;-60
2022/03/18 04:48:37;;;;;;;;;28.50;28.50;;;;;6.47;65.94;103183.50;5003709;28;45578;-61
2022/03/18 04:51:02;;;;;;;;;31.00;26.75;;;;;6.40;65.47;103167.66;5011276;28;45615;-60
2022/03/18 04:53:28;;;;;;;;;25.25;24.00;;;;;6.30;65.84;103160.56;5010145;28;45491;-59
2022/03/18 04:55:53;;;;;;;;;30.50;27.50;;;;;6.32;65.62;103170.25;5005099;28;45483;-60
2022/03/18 04:58:19;;;;;;;;;32.50;27.50;;;;;6.29;65.94;103175.53;5002174;28;45455;-60
2022/03/18 05:00:44;;;;;;;;;26.75;25.50;;;;;6.22;66.53;103165.81;5000630;28;45389;-60
2022/03/18 05:03:10;;;;;;;;;31.25;26.75;;;;;6.18;66.37;103169.34;5000236;28;45834;-60
2022/03/18 05:05:37;;;;;;;;;28.50;24.00;;;;;6.24;65.59;103177.28;4999494;28;45174;-60
2022/03/18 05:08:04;;;;;;;;;30.25;25.50;;;;;6.19;66.07;103168.47;5000508;28;45505;-59
2022/03/18 05:10:30;;;;;;;;;25.00;22.75;;;;;6.22;65.78;103187.84;4999877;28;45432;-61
2022/03/18 05:12:55;;;;;;;;;23.75;19.50;;;;;6.21;65.47;103185.19;5003165;28;45250;-64
2022/03/18 05:15:21;;;;;;;;;21.00;18.75;;;;;6.18;65.46;103190.47;4963702;28;48321;-60
2022/03/18 05:17:51;;;;;;;;;28.00;21.50;;;;;6.20;64.89;103189.59;4985926;28;45543;-61
2022/03/18 05:20:18;;;;;;;;;25.75;24.50;;;;;6.28;64.97;103197.56;5009516;28;45433;-61
2022/03/18 05:22:45;;;;;;;;;33.75;28.25;;;;;6.22;65.14;103194.88;5000434;28;45520;-59
2022/03/18 05:25:12;;;;;;;;;30.00;26.25;;;;;6.25;65.35;103202.84;5001419;28;45511;-60
2022/03/18 05:27:43;;;;;;;;;23.50;21.75;;;;;6.28;64.57;103202.84;4987705;28;45958;-60
2022/03/18 05:30:15;;;;;;;;;35.00;21.75;;;;;6.33;64.40;103201.09;5001332;28;45554;-59
2022/03/18 05:32:40;;;;;;;;;29.25;23.00;;;;;6.29;64.07;103199.31;5003904;28;45495;-61
2022/03/18 05:35:07;;;;;;;;;23.75;18.75;;;;;6.31;64.60;103208.13;5003823;28;46106;-61
2022/03/18 05:37:32;;;;;;;;;28.50;23.50;;;;;6.33;63.67;103218.72;5013098;28;45300;-59
2022/03/18 05:39:58;;;;;;;;;17.25;13.25;;;;;6.27;64.55;103197.56;5009366;28;45320;-60
2022/03/18 05:42:23;;;;;;;;;23.00;23.00;;;;;6.27;64.09;103205.50;5007827;28;44964;-61
2022/03/18 05:44:49;;;;;;;;;21.25;21.25;;;;;6.34;63.58;103208.13;5009988;28;45507;-60
2022/03/18 05:47:15;;;;;;;;;21.25;17.25;;;;;6.37;63.81;103218.72;5013535;28;45459;-60
2022/03/18 05:49:41;;;;;;;;;29.50;19.50;;;;;6.39;63.36;103218.75;5009733;28;44898;-61
2022/03/18 05:52:07;;;;;;;;;30.25;23.25;;;;;6.39;62.74;103209.06;5006387;28;45400;-60
2022/03/18 05:54:32;;;;;;;;;17.25;15.50;;;;;6.41;63.48;103209.06;5009048;28;45590;-59
2022/03/18 05:56:58;;;;;;;;;26.00;23.25;;;;;6.41;62.72;103209.94;5010647;28;45199;-59
2022/03/18 05:59:26;;;;;;;;;32.00;26.25;;;;;6.45;62.62;103213.47;5004051;28;44692;-60
2022/03/18 06:01:54;;;;;;;;;26.50;21.75;;;;;6.41;62.28;103195.84;5004636;28;45335;-61
2022/03/18 06:04:20;;;;;;;;;27.25;27.25;;;;;6.45;63.12;103216.09;5009504;28;45412;-60
2022/03/18 06:06:47;;;;;;;;;26.25;23.50;;;;;6.48;62.34;103227.56;4974369;28;45408;-58
2022/03/18 06:11:58;;;;;;;;;24.50;22.75;;;;;6.46;61.96;103229.31;5006900;28;45403;-60
2022/03/18 06:14:26;;;;;;;;;23.75;22.75;;;;;6.48;62.75;103231.97;4995515;28;45453;-60
2022/03/18 06:16:57;;;;;;;;;26.75;23.25;;;;;6.43;61.60;103207.28;4992560;28;45412;-61
2022/03/18 06:19:24;;;;;;;;;27.25;22.25;;;;;6.44;61.82;103203.78;5004523;28;45447;-60
2022/03/18 06:21:50;;;;;;;;;23.75;19.75;;;;;6.48;62.10;103211.69;5007417;28;45468;-59
2022/03/18 06:24:17;;;;;;;;;26.00;22.00;;;;;6.53;62.19;103229.38;5008357;28;45322;-59
2022/03/18 06:26:43;;;;;;;;;22.75;20.00;;;;;6.54;61.63;103231.13;4998860;28;45427;-61
2022/03/18 06:29:09;;;;;;;;;27.25;21.00;;;;;6.54;61.72;103217.91;5001978;28;45766;-59
2022/03/18 06:31:35;;;;;;;;;33.25;23.00;;;;;6.64;61.04;103238.19;5002819;28;45469;-59
2022/03/18 06:34:00;;;;;;;;;26.75;24.25;;;;;6.59;61.25;103227.59;5002721;28;45976;-58
2022/03/18 06:36:27;;;;;;;;;30.25;27.50;;;;;6.61;61.34;103239.06;5006510;28;45258;-61
2022/03/18 06:38:53;;;;;;;;;27.25;25.25;;;;;6.65;61.15;103234.69;4989772;28;45756;-62
2022/03/18 06:41:19;;;;;;;;;23.25;20.00;;;;;6.57;61.61;103217.91;5004362;28;45650;-60
2022/03/18 06:43:47;;;;;;;;;30.75;25.25;;;;;6.64;61.74;103224.97;5000334;28;46808;-61
2022/03/18 06:46:16;;;;;;;;;27.25;26.50;;;;;6.65;61.32;103229.41;5003742;28;45311;-61
2022/03/18 06:48:42;;;;;;;;;29.00;23.25;;;;;6.52;60.84;103207.34;4984432;28;45515;-62
2022/03/18 06:51:09;;;;;;;;;26.25;21.75;;;;;6.64;61.46;103217.94;5004335;28;45310;-60
2022/03/18 06:53:34;;;;;;;;;31.00;25.25;;;;;6.62;61.59;103213.50;5008932;28;46308;-62
2022/03/18 06:56:00;;;;;;;;;26.00;23.25;;;;;6.71;61.16;103232.03;5012741;28;45261;-65
2022/03/18 06:58:27;;;;;;;;;25.25;24.00;;;;;6.72;60.99;103226.75;4994980;28;45515;-63
2022/03/18 07:00:54;;;;;;;;;28.75;26.25;;;;;6.73;60.85;103233.81;5006805;28;46038;-62
2022/03/18 07:03:19;;;;;;;;;24.50;20.00;;;;;6.71;60.42;103224.09;5004739;28;45455;-65
2022/03/18 07:05:45;;;;;;;;;34.75;29.75;;;;;6.69;61.33;103228.50;5006803;28;45476;-59
2022/03/18 07:08:10;;;;;;;;;29.00;26.25;;;;;6.72;61.05;103229.41;5008480;28;45431;-61
2022/03/18 07:10:36;;;;;;;;;24.75;18.00;;;;;6.71;61.42;103235.56;5004492;28;45249;-62
2022/03/18 07:13:01;;;;;;;;;33.25;27.00;;;;;6.69;61.18;103228.50;4985606;28;48059;-61
2022/03/18 07:15:27;;;;;;;;;33.75;26.00;;;;;6.64;60.85;103222.31;5008507;28;44788;-61
2022/03/18 07:17:55;;;;;;;;;34.75;26.75;;;;;6.59;61.29;103230.25;5010681;28;45424;-63
2022/03/18 07:20:23;;;;;;;;;32.00;30.50;;;;;6.63;61.27;103241.72;4992214;28;45326;-61
2022/03/18 07:23:00;;;;;;;;;28.25;24.25;;;;;6.58;61.51;103232.88;5007541;28;45281;-61
2022/03/18 07:25:26;;;;;;;;;30.25;26.00;;;;;6.68;60.64;103245.25;5002876;28;45441;-62
2022/03/18 07:27:51;;;;;;;;;31.25;29.25;;;;;6.72;60.51;103236.44;4983825;28;45547;-62
2022/03/18 07:30:16;;;;;;;;;34.25;30.25;;;;;6.76;60.90;103238.22;5001295;28;45845;-60
2022/03/18 07:32:42;;;;;;;;;27.00;24.50;;;;;6.73;60.06;103241.75;5007558;28;45712;-62
2022/03/18 07:35:10;;;;;;;;;32.25;26.25;;;;;6.73;60.95;103232.91;5012079;28;45407;-60
2022/03/18 07:37:36;;;;;;;;;27.25;24.75;;;;;6.80;60.25;103232.06;4995582;28;45184;-61
2022/03/18 07:40:01;;;;;;;;;34.50;26.50;;;;;6.80;60.58;103235.59;4967464;28;45416;-63
2022/03/18 07:42:27;;;;;;;;;29.75;24.75;;;;;6.88;60.44;103224.13;4985347;28;47259;-61
2022/03/18 07:44:52;;;;;;;;;28.75;26.25;;;;;6.93;59.65;103225.91;5001701;28;44770;-61
2022/03/18 07:47:18;;;;;;;;;22.25;20.00;;;;;6.94;60.17;103240.91;4987673;28;45438;-62
2022/03/18 07:49:43;;;;;;;;;28.25;26.50;;;;;6.96;60.01;103231.19;5003828;28;45354;-63
2022/03/18 07:52:09;;;;;;;;;37.25;28.25;;;;;6.99;59.65;103228.56;5002580;28;45431;-61
2022/03/18 07:54:39;;;;;;;;;30.00;27.25;;;;;7.09;60.09;103243.56;5010475;28;45428;-61
2022/03/18 07:57:04;;;;;;;;;29.00;25.75;;;;;6.99;60.04;103215.31;4990115;28;45306;-61
2022/03/18 07:59:29;;;;;;;;;37.50;28.75;;;;;7.20;59.17;103246.22;4985353;28;45563;-60
2022/03/18 08:01:55;;;;;;;;;35.75;31.00;;;;;7.22;59.17;103243.56;5001451;28;46073;-61
2022/03/18 08:04:20;;;;;;;;;25.25;23.75;;;;;7.33;59.09;103245.34;5006282;28;45472;-60
2022/03/18 08:06:46;;;;;;;;;28.00;26.00;;;;;7.35;58.93;103240.03;5007121;28;45304;-61
2022/03/18 08:09:11;;;;;;;;;25.50;22.50;;;;;7.35;58.40;103224.16;5003153;28;45676;-61
2022/03/18 08:11:36;;;;;;;;;27.25;22.00;;;;;7.44;58.29;103236.50;5001354;28;45433;-61
2022/03/18 08:14:02;;;;;;;;;28.00;24.00;;;;;7.56;58.79;103234.72;5001292;28;45401;-60
2022/03/18 08:16:27;;;;;;;;;31.25;27.50;;;;;7.64;58.52;103230.28;4985689;28;45302;-61
2022/03/18 08:18:56;;;;;;;;;24.50;22.75;;;;;7.66;57.58;103227.63;4999879;28;45555;-62
2022/03/18 08:21:22;;;;;;;;;31.50;23.50;;;;;7.74;57.56;103235.56;4997402;28;45367;-65
2022/03/18 08:23:48;;;;;;;;;14.75;14.75;;;;;7.84;58.04;103245.28;4998085;28;45492;-61
2022/03/18 08:26:13;;;;;;;;;26.25;23.50;;;;;7.86;57.44;103243.50;4998934;28;45435;-65
2022/03/18 08:28:39;;;;;;;;;24.50;21.75;;;;;8.01;57.43;103253.16;4998787;28;45470;-63
2022/03/18 08:31:04;;;;;;;;;22.25;20.50;;;;;8.06;56.09;103246.06;4977731;28;46691;-61
2022/03/18 08:33:31;;;;;;;;;25.50;20.75;;;;;8.12;56.96;103252.25;4991862;28;45310;-62
2022/03/18 08:35:57;;;;;;;;;24.50;21.25;;;;;8.16;55.74;103245.16;4997911;28;45369;-60
2022/03/18 08:38:22;;;;;;;;;21.75;17.75;;;;;8.21;55.57;103249.56;4984687;28;45634;-61
2022/03/18 08:40:47;;;;;;;;;20.75;20.75;;;;;8.28;55.07;103253.94;4994735;28;45360;-60
2022/03/18 08:43:13;;;;;;;;;27.25;22.50;;;;;8.33;55.63;103243.31;5002711;28;45340;-61
2022/03/18 08:45:38;;;;;;;;;23.00;21.00;;;;;8.43;55.10;103241.53;5003697;28;45652;-62
2022/03/18 08:48:05;;;;;;;;;26.75;25.50;;;;;8.47;53.81;103232.69;5005725;28;45436;-60
2022/03/18 08:50:30;;;;;;;;;28.00;24.00;;;;;8.58;53.98;103238.81;5005110;28;45568;-62
2022/03/18 08:52:57;;;;;;;;;22.50;20.75;;;;;8.63;53.27;103234.38;5004244;28;45420;-61
2022/03/18 08:55:23;;;;;;;;;22.00;22.00;;;;;8.63;53.18;103229.06;5003151;28;45388;-61
2022/03/18 08:57:49;;;;;;;;;21.00;19.75;;;;;8.86;53.40;103240.41;5003607;28;45562;-61
2022/03/18 09:00:17;;;;;;;;;19.50;19.00;;;;;9.07;51.80;103230.53;5005497;28;46078;-61
2022/03/18 09:02:43;;;;;;;;;19.50;19.25;;;;;9.27;51.13;103249.84;5014068;28;45153;-62
2022/03/18 09:05:10;;;;;;;;;18.25;16.75;;;;;9.38;51.43;103234.69;5007303;28;45421;-61
2022/03/18 09:07:36;;;;;;;;;19.50;19.25;;;;;9.67;50.09;103246.81;5008003;28;45320;-60
2022/03/18 09:10:06;;;;;;;;;24.00;24.00;;;;;9.82;48.40;103228.06;5009170;28;45396;-62
2022/03/18 09:12:32;;;;;;;;;22.75;22.75;;;;;10.03;48.92;103227.81;4992548;28;45352;-61
2022/03/18 09:14:58;;;;;;;;;23.75;23.50;;;;;10.22;47.15;103216.97;4989367;28;45520;-61
2022/03/18 09:17:24;;;;;;;;;19.75;15.25;;;;;10.49;46.72;103243.22;5001312;28;45467;-62
2022/03/18 09:19:50;;;;;;;;;15.75;15.00;;;;;10.60;46.11;103241.28;4985710;28;46140;-61
2022/03/18 09:22:16;;;;;;;;;21.75;17.00;;;;;10.62;45.73;103212.00;4997719;28;45423;-62
2022/03/18 09:24:44;;;;;;;;;22.50;16.00;;;;;10.99;45.94;103238.94;4982796;28;45526;-62
2022/03/18 09:27:10;;;;;;;;;21.50;16.25;;;;;11.09;44.38;103234.34;5000172;28;45817;-60
2022/03/18 09:29:36;;;;;;;;;16.75;16.75;;;;;11.18;42.84;103219.09;5000571;28;45282;-60
2022/03/18 09:32:02;;;;;;;;;17.75;15.50;;;;;11.50;44.15;103236.31;5001055;28;45463;-61
2022/03/18 09:34:28;;;;;;;;;30.75;22.50;;;;;11.68;41.91;103232.44;5003315;28;45354;-60
2022/03/18 09:36:55;;;;;;;;;16.00;16.00;;;;;11.86;42.06;103233.91;5002718;28;45711;-62
2022/03/18 09:39:22;;;;;;;;;10.75;9.00;;;;;11.99;41.29;103222.09;5002203;28;45823;-61
2022/03/18 09:41:48;;;;;;;;;15.50;14.75;;;;;12.16;40.90;103219.97;5002582;28;45471;-62
2022/03/18 09:44:13;;;;;;;;;13.50;10.50;;;;;12.29;38.71;103224.13;5001702;28;45467;-62
2022/03/18 09:46:45;;;;;;;;;11.75;9.75;;;;;12.46;38.12;103230.88;5006261;28;45397;-61
2022/03/18 09:49:14;;;;;;;;;13.75;11.50;;;;;12.53;37.03;103221.84;5001362;28;45508;-62
2022/03/18 09:51:43;;;;;;;;;19.50;12.25;;;;;12.64;36.68;103226.03;5003648;28;45461;-60
2022/03/18 09:54:10;;;;;;;;;12.50;11.25;;;;;12.68;36.15;103229.50;5006329;28;45619;-61
2022/03/18 09:56:41;;;;;;;;;13.75;12.00;;;;;12.70;37.01;103225.88;5002403;28;45365;-61
2022/03/18 09:59:07;;;;;;;;;9.00;6.00;;;;;12.70;35.86;103215.19;4988953;28;47245;-61
2022/03/18 10:01:32;;;;;;;;;12.50;10.25;;;;;12.63;34.81;103223.34;5004828;28;45214;-62
2022/03/18 10:04:10;;;;;;;;;12.50;12.50;;;;;12.62;36.15;103226.94;5002098;28;45432;-62
2022/03/18 10:06:38;;;;;;;;;13.00;8.75;;;;;12.62;36.85;103237.63;5003609;28;45398;-63
2022/03/18 10:09:07;;;;;;;;;15.25;13.75;;;;;12.61;36.50;103236.75;5008035;28;45459;-61
2022/03/18 10:11:37;;;;;;;;;16.00;11.75;;;;;12.57;36.01;103228.84;5014418;28;45444;-60
2022/03/18 10:14:10;;;;;;;;;15.50;13.75;;;;;12.59;36.48;103238.56;5005392;28;45627;-61
2022/03/18 10:16:48;;;;;;;;;15.00;14.50;;;;;12.50;35.97;103228.13;5578692;22;46710;-61
2022/03/18 10:19:16;;;;;;;;;17.00;12.75;;;;;12.44;35.76;103238.03;5048677;28;46443;-62
2022/03/18 10:21:52;;;;;;;;;9.75;8.50;;;;;12.40;37.33;103222.09;5044922;28;45395;-61
2022/03/18 10:24:19;;;;;;;;;13.50;13.50;;;;;12.45;36.64;103223.78;5057155;28;45821;-61
2022/03/18 10:26:44;;;;;;;;;14.50;11.25;;;;;12.39;35.80;103220.34;5041173;28;45358;-70
2022/03/18 10:29:11;;;;;;;;;14.25;13.00;;;;;12.33;35.15;103212.47;5057792;28;45848;-70
2022/03/18 10:31:45;;;;;;;;;22.00;14.75;;;;;12.33;35.51;103225.81;5056606;28;45497;-61
2022/03/18 10:37:15;;;;;;;;;13.75;12.25;;;;;12.38;35.26;103207.03;5058889;28;45376;-60
2022/03/18 10:39:45;;;;;;;;;6.25;2.25;;;;;12.44;35.24;103211.34;5058623;28;45665;-60
2022/03/18 10:42:13;;;;;;;;;12.75;12.50;;;;;12.46;35.88;103199.72;5041172;28;45439;-61
2022/03/18 10:44:55;;;;;;;;;19.75;14.75;;;;;12.62;34.76;103210.94;5060411;28;45488;-61
2022/03/18 10:47:41;;;;;;;;;17.00;11.75;;;;;12.60;33.58;103207.41;5059540;28;45350;-62
2022/03/18 10:50:29;;;;;;;;;12.00;11.50;;;;;12.70;34.32;103203.63;5057755;28;45398;-60
2022/03/18 10:52:57;;;;;;;;;13.00;13.00;;;;;12.78;34.01;103206.13;5038583;28;45462;-60
2022/03/18 10:55:24;;;;;;;;;13.50;12.75;;;;;12.87;34.48;103204.09;5053669;28;45429;-60
2022/03/18 10:57:52;;;;;;;;;13.00;12.00;;;;;12.85;34.29;103184.56;5040090;28;45558;-59
2022/03/18 11:00:23;;;;;;;;;12.75;11.75;;;;;13.07;34.24;103205.41;5043300;28;45833;-61
2022/03/18 11:02:51;;;;;;;;;14.33;11.00;;;;;13.11;33.71;103183.91;5042935;28;45801;-61
2022/03/18 11:05:19;;;;;;;;;10.00;10.00;;;;;13.20;31.55;103191.75;5045519;28;45329;-61
2022/03/18 11:07:46;;;;;;;;;12.00;10.00;;;;;13.27;31.79;103192.44;5047850;28;45433;-61
2022/03/18 11:13:01;;;;;;;;;14.67;13.00;;;;;13.52;32.43;103192.69;5042689;28;45413;-61
2022/03/18 11:15:29;;;;;;;;;13.00;11.33;;;;;13.46;30.71;103175.00;5042099;28;45788;-62
2022/03/18 11:17:56;;;;;;;;;15.33;14.00;;;;;13.61;29.83;103183.53;5051798;28;45656;-62
2022/03/18 11:20:25;;;;;;;;;12.33;12.33;;;;;13.65;30.50;103174.50;5058258;28;45452;-61
2022/03/18 11:22:51;;;;;;;;;8.67;8.33;;;;;13.77;29.75;103169.69;5052668;28;45187;-61
2022/03/18 11:25:18;;;;;;;;;10.67;10.00;;;;;13.82;28.78;103169.56;5058121;28;45192;-61
2022/03/18 11:27:46;;;;;;;;;11.67;9.00;;;;;14.02;29.35;103191.25;5060258;28;45559;-65